Time;durP1;ratioP1;P1;durP2;ratioP2;P2;SDS_P1;SDS_P2;PMS_P1;PMS_P2;Temp;Humidity;BMP_temperature;BMP_pressure;BME280_temperature;BME280_humidity;BME280_pressure;Samples;Min_cycle;Max_cycle;Signal;HPM_P1;HPM_P2
2023/09/07 00:01:58;;;;;;;57.00;2.77;;;;;;;;;;4947887;28;20453;-71
2023/09/07 00:04:26;;;;;;;57.47;3.40;;;;;;;;;;4956113;28;20551;-71
2023/09/07 00:06:54;;;;;;;57.03;3.07;;;;;;;;;;4955308;28;20464;-71
2023/09/07 00:09:23;;;;;;;58.37;2.70;;;;;;;;;;4955687;28;20489;-71
2023/09/07 00:11:50;;;;;;;57.27;2.77;;;;;;;;;;4955779;28;20457;-71
2023/09/07 00:14:17;;;;;;;57.10;3.10;;;;;;;;;;4955614;28;20827;-70
2023/09/07 00:16:44;;;;;;;56.70;2.30;;;;;;;;;;4955077;28;20469;-71
2023/09/07 00:19:11;;;;;;;57.00;2.40;;;;;;;;;;4955649;28;21000;-71
2023/09/07 00:21:39;;;;;;;57.60;2.63;;;;;;;;;;4955540;28;20463;-72
2023/09/07 00:24:08;;;;;;;57.60;3.10;;;;;;;;;;4955816;28;20551;-72
2023/09/07 00:26:35;;;;;;;56.80;2.27;;;;;;;;;;4955256;28;21007;-72
2023/09/07 00:29:02;;;;;;;56.90;2.50;;;;;;;;;;4955284;28;20457;-72
2023/09/07 00:31:29;;;;;;;57.07;2.80;;;;;;;;;;4954933;28;20452;-71
2023/09/07 00:33:56;;;;;;;56.53;2.40;;;;;;;;;;4955253;28;20444;-72
2023/09/07 00:36:23;;;;;;;57.50;2.80;;;;;;;;;;4955060;28;20831;-72
2023/09/07 00:38:50;;;;;;;56.87;2.23;;;;;;;;;;4955124;28;20471;-71
2023/09/07 00:41:19;;;;;;;57.07;2.70;;;;;;;;;;4955019;28;20453;-72
2023/09/07 00:43:46;;;;;;;57.70;2.57;;;;;;;;;;4952477;28;20460;-70
2023/09/07 00:46:13;;;;;;;57.00;2.37;;;;;;;;;;4953585;28;20479;-72
2023/09/07 00:48:40;;;;;;;56.67;2.00;;;;;;;;;;4948350;28;20457;-71
2023/09/07 00:51:07;;;;;;;56.73;2.30;;;;;;;;;;4945911;28;20572;-72
2023/09/07 00:53:35;;;;;;;56.90;2.90;;;;;;;;;;4946754;28;20454;-72
2023/09/07 00:56:02;;;;;;;57.67;2.50;;;;;;;;;;4941143;28;20474;-72
2023/09/07 00:58:31;;;;;;;57.50;2.80;;;;;;;;;;4935381;29;20457;-72
2023/09/07 01:00:58;;;;;;;56.97;2.80;;;;;;;;;;4935755;29;20437;-72
2023/09/07 01:03:25;;;;;;;56.77;2.83;;;;;;;;;;4935629;29;20464;-72
2023/09/07 01:05:54;;;;;;;56.40;2.37;;;;;;;;;;4935131;29;20920;-70
2023/09/07 01:08:26;;;;;;;56.87;2.60;;;;;;;;;;4946873;28;20468;-71
2023/09/07 01:10:53;;;;;;;57.07;2.80;;;;;;;;;;4947012;29;20480;-71
2023/09/07 01:13:20;;;;;;;57.00;2.70;;;;;;;;;;4954724;28;20457;-70
2023/09/07 01:15:49;;;;;;;57.20;2.60;;;;;;;;;;4954092;28;20836;-71
2023/09/07 01:18:17;;;;;;;56.67;2.40;;;;;;;;;;4954397;28;20456;-71
2023/09/07 01:20:46;;;;;;;56.80;2.40;;;;;;;;;;4953502;28;20497;-72
2023/09/07 01:23:14;;;;;;;56.53;2.30;;;;;;;;;;4954318;28;20459;-72
2023/09/07 01:25:42;;;;;;;57.20;2.50;;;;;;;;;;4953613;28;20572;-72
2023/09/07 01:28:09;;;;;;;56.87;2.47;;;;;;;;;;4954289;28;20456;-72
2023/09/07 01:30:39;;;;;;;56.73;2.50;;;;;;;;;;4953929;28;20967;-72
2023/09/07 01:33:06;;;;;;;57.10;2.80;;;;;;;;;;4954477;28;20488;-71
2023/09/07 01:35:34;;;;;;;57.00;2.90;;;;;;;;;;4953381;28;20456;-72
2023/09/07 01:38:02;;;;;;;57.30;2.93;;;;;;;;;;4953815;28;20453;-72
2023/09/07 01:40:31;;;;;;;56.97;2.90;;;;;;;;;;4953722;28;20575;-72
2023/09/07 01:42:58;;;;;;;56.77;2.47;;;;;;;;;;4954124;28;20455;-72
2023/09/07 01:45:25;;;;;;;56.87;2.60;;;;;;;;;;4953472;28;20461;-70
2023/09/07 01:47:52;;;;;;;56.90;2.60;;;;;;;;;;4953811;28;20453;-72
2023/09/07 01:50:19;;;;;;;57.10;2.70;;;;;;;;;;4953627;28;20445;-72
2023/09/07 01:52:47;;;;;;;56.90;2.80;;;;;;;;;;4953392;28;20825;-72
2023/09/07 01:55:14;;;;;;;56.77;2.33;;;;;;;;;;4953308;28;20463;-72
2023/09/07 01:57:43;;;;;;;57.57;2.60;;;;;;;;;;4953516;28;20480;-72
2023/09/07 02:00:11;;;;;;;57.10;2.30;;;;;;;;;;4952727;28;20956;-72
2023/09/07 02:02:38;;;;;;;56.97;2.30;;;;;;;;;;4953515;28;20540;-73
2023/09/07 02:05:06;;;;;;;56.80;2.37;;;;;;;;;;4952901;28;20455;-72
2023/09/07 02:07:33;;;;;;;56.90;2.70;;;;;;;;;;4953464;28;20714;-73
2023/09/07 02:10:00;;;;;;;57.87;2.60;;;;;;;;;;4953487;28;20476;-72
2023/09/07 02:12:27;;;;;;;56.97;2.80;;;;;;;;;;4953664;28;20463;-72
2023/09/07 02:14:56;;;;;;;57.10;2.70;;;;;;;;;;4953317;28;20445;-72
2023/09/07 02:17:23;;;;;;;56.97;2.40;;;;;;;;;;4953434;28;20475;-72
2023/09/07 02:19:50;;;;;;;56.80;2.37;;;;;;;;;;4953348;28;21012;-72
2023/09/07 02:22:17;;;;;;;56.77;2.47;;;;;;;;;;4953397;28;20515;-72
2023/09/07 02:24:44;;;;;;;56.80;2.80;;;;;;;;;;4942943;28;20822;-72
2023/09/07 02:27:11;;;;;;;58.80;2.93;;;;;;;;;;4933868;29;20484;-72
2023/09/07 02:29:38;;;;;;;56.90;2.60;;;;;;;;;;4934156;29;20449;-71
2023/09/07 02:32:09;;;;;;;57.07;2.70;;;;;;;;;;4933923;29;20458;-72
2023/09/07 02:34:36;;;;;;;57.07;2.67;;;;;;;;;;4950922;29;20821;-72
2023/09/07 02:37:03;;;;;;;57.20;2.50;;;;;;;;;;4952715;28;20479;-72
2023/09/07 02:39:30;;;;;;;56.87;2.40;;;;;;;;;;4952719;28;20461;-71
2023/09/07 02:41:57;;;;;;;56.67;2.40;;;;;;;;;;4952088;28;20456;-72
2023/09/07 02:44:24;;;;;;;56.80;2.63;;;;;;;;;;4951614;29;20448;-71
2023/09/07 02:46:51;;;;;;;57.07;2.70;;;;;;;;;;4952371;28;20464;-72
2023/09/07 02:49:20;;;;;;;56.73;2.50;;;;;;;;;;4946243;28;20958;-72
2023/09/07 02:51:47;;;;;;;56.87;2.40;;;;;;;;;;4936341;29;20528;-72
2023/09/07 02:54:14;;;;;;;56.77;2.60;;;;;;;;;;4952836;28;20941;-72
2023/09/07 02:56:41;;;;;;;57.30;2.77;;;;;;;;;;4942606;28;20469;-72
2023/09/07 02:59:08;;;;;;;56.83;2.63;;;;;;;;;;4941507;29;20461;-72
2023/09/07 03:01:35;;;;;;;56.87;2.50;;;;;;;;;;4934239;29;20497;-72
2023/09/07 03:04:03;;;;;;;56.90;3.17;;;;;;;;;;4952949;28;20478;-72
2023/09/07 03:06:32;;;;;;;57.10;2.90;;;;;;;;;;4944329;28;20508;-72
2023/09/07 03:08:59;;;;;;;56.70;2.57;;;;;;;;;;4948772;28;20462;-71
2023/09/07 03:11:26;;;;;;;57.07;2.60;;;;;;;;;;4934781;29;20537;-72
2023/09/07 03:13:53;;;;;;;56.60;2.57;;;;;;;;;;4945090;29;20833;-71
2023/09/07 03:16:20;;;;;;;56.57;2.30;;;;;;;;;;4943986;29;20464;-72
2023/09/07 03:18:47;;;;;;;56.43;2.40;;;;;;;;;;4948517;28;20457;-72
2023/09/07 03:21:14;;;;;;;56.87;2.47;;;;;;;;;;4950440;28;20498;-71
2023/09/07 03:23:44;;;;;;;56.80;2.63;;;;;;;;;;4936963;29;20453;-72
2023/09/07 03:26:11;;;;;;;57.30;3.33;;;;;;;;;;4950012;29;20983;-72
2023/09/07 03:28:38;;;;;;;56.67;2.23;;;;;;;;;;4939242;28;20891;-72
2023/09/07 03:31:05;;;;;;;57.00;2.60;;;;;;;;;;4945112;29;20454;-72
2023/09/07 03:33:32;;;;;;;57.10;2.30;;;;;;;;;;4945451;29;20458;-72
2023/09/07 03:35:59;;;;;;;56.80;2.57;;;;;;;;;;4956121;28;20475;-72
2023/09/07 03:38:27;;;;;;;57.00;2.60;;;;;;;;;;4940761;28;20472;-72
2023/09/07 03:40:55;;;;;;;56.87;2.60;;;;;;;;;;4944658;29;20503;-71
2023/09/07 03:43:22;;;;;;;57.17;2.60;;;;;;;;;;4944902;29;20450;-72
2023/09/07 03:45:49;;;;;;;56.97;2.60;;;;;;;;;;4944502;29;20511;-72
2023/09/07 03:48:17;;;;;;;56.87;2.40;;;;;;;;;;4950999;29;20449;-72
2023/09/07 03:50:44;;;;;;;57.07;2.50;;;;;;;;;;4955543;28;20460;-70
2023/09/07 03:53:11;;;;;;;56.83;2.47;;;;;;;;;;4955855;28;20452;-70
2023/09/07 03:55:42;;;;;;;56.87;2.73;;;;;;;;;;4939292;28;20473;-70
2023/09/07 03:58:11;;;;;;;57.00;2.50;;;;;;;;;;4942898;28;21021;-71
2023/09/07 04:00:40;;;;;;;56.77;2.67;;;;;;;;;;4945368;29;20495;-72
2023/09/07 04:03:07;;;;;;;56.90;2.60;;;;;;;;;;4955938;28;20457;-72
2023/09/07 04:05:34;;;;;;;56.83;2.73;;;;;;;;;;4947227;28;20457;-71
2023/09/07 04:08:02;;;;;;;57.37;2.90;;;;;;;;;;4943514;28;20456;-72
2023/09/07 04:10:29;;;;;;;56.90;2.47;;;;;;;;;;4952003;29;20453;-71
2023/09/07 04:12:57;;;;;;;56.33;2.40;;;;;;;;;;4952264;28;20532;-71
2023/09/07 04:15:26;;;;;;;56.93;2.80;;;;;;;;;;4935985;29;20784;-71
2023/09/07 04:17:54;;;;;;;57.00;2.43;;;;;;;;;;4936274;29;20855;-72
2023/09/07 04:20:23;;;;;;;56.77;2.43;;;;;;;;;;4936164;29;20493;-71
2023/09/07 04:22:50;;;;;;;57.40;3.00;;;;;;;;;;4935048;29;20518;-70
2023/09/07 04:25:18;;;;;;;58.13;3.57;;;;;;;;;;4935862;29;20460;-71
2023/09/07 04:27:45;;;;;;;57.70;3.60;;;;;;;;;;4936055;29;20834;-71
2023/09/07 04:30:12;;;;;;;56.90;2.93;;;;;;;;;;4936339;29;20813;-71
2023/09/07 04:32:40;;;;;;;56.90;2.67;;;;;;;;;;4936241;29;20458;-71
2023/09/07 04:35:08;;;;;;;56.97;2.50;;;;;;;;;;4935337;29;20941;-70
2023/09/07 04:37:35;;;;;;;56.53;2.40;;;;;;;;;;4936059;29;20484;-71
2023/09/07 04:40:02;;;;;;;56.90;2.50;;;;;;;;;;4935803;29;20911;-71
2023/09/07 04:42:29;;;;;;;59.87;3.27;;;;;;;;;;4939108;29;20811;-71
2023/09/07 04:44:56;;;;;;;56.77;2.77;;;;;;;;;;4951621;28;20836;-71
2023/09/07 04:47:24;;;;;;;56.97;2.30;;;;;;;;;;4943312;29;20484;-71
2023/09/07 04:49:52;;;;;;;56.80;2.70;;;;;;;;;;4945483;28;20453;-70
2023/09/07 04:52:19;;;;;;;57.30;2.47;;;;;;;;;;4947228;28;20543;-71
2023/09/07 04:54:46;;;;;;;56.73;2.87;;;;;;;;;;4937373;28;20465;-72
2023/09/07 04:57:15;;;;;;;57.57;2.97;;;;;;;;;;4935273;29;20565;-71
2023/09/07 04:59:43;;;;;;;56.67;2.30;;;;;;;;;;4935312;29;20573;-69
2023/09/07 05:02:11;;;;;;;56.93;2.80;;;;;;;;;;4935748;29;20785;-71
2023/09/07 05:04:38;;;;;;;56.83;2.33;;;;;;;;;;4935347;29;20450;-71
2023/09/07 05:07:07;;;;;;;56.47;2.30;;;;;;;;;;4935325;29;20481;-71
2023/09/07 05:09:34;;;;;;;56.83;2.40;;;;;;;;;;4935727;29;20449;-71
2023/09/07 05:12:01;;;;;;;56.70;2.30;;;;;;;;;;4935358;29;20449;-71
2023/09/07 05:14:29;;;;;;;56.63;2.40;;;;;;;;;;4935643;29;20458;-69
2023/09/07 05:16:57;;;;;;;56.63;2.30;;;;;;;;;;4935385;29;20548;-72
2023/09/07 05:19:24;;;;;;;56.60;2.40;;;;;;;;;;4935169;29;20548;-71
2023/09/07 05:21:51;;;;;;;56.63;2.40;;;;;;;;;;4935154;29;20497;-71
2023/09/07 05:24:20;;;;;;;57.00;2.80;;;;;;;;;;4935454;29;20931;-71
2023/09/07 05:26:47;;;;;;;57.40;2.60;;;;;;;;;;4934754;29;20476;-71
2023/09/07 05:29:14;;;;;;;56.83;2.70;;;;;;;;;;4935158;29;20460;-71
2023/09/07 05:31:41;;;;;;;56.27;2.17;;;;;;;;;;4935386;29;20807;-70
2023/09/07 05:34:08;;;;;;;57.00;2.70;;;;;;;;;;4935124;29;20453;-71
2023/09/07 05:36:36;;;;;;;56.57;2.60;;;;;;;;;;4934740;29;20473;-70
2023/09/07 05:39:03;;;;;;;56.60;2.23;;;;;;;;;;4938652;29;20551;-71
2023/09/07 05:41:32;;;;;;;56.77;2.37;;;;;;;;;;4953937;28;20493;-71
2023/09/07 05:43:59;;;;;;;56.47;2.40;;;;;;;;;;4953885;28;20844;-71
2023/09/07 05:46:26;;;;;;;56.97;2.60;;;;;;;;;;4953824;28;20473;-71
2023/09/07 05:48:53;;;;;;;56.90;2.30;;;;;;;;;;4954259;28;20452;-71
2023/09/07 05:51:20;;;;;;;56.77;2.50;;;;;;;;;;4953881;28;20548;-71
2023/09/07 05:53:47;;;;;;;56.70;2.30;;;;;;;;;;4954478;28;20448;-71
2023/09/07 05:56:15;;;;;;;57.30;2.80;;;;;;;;;;4953363;28;20479;-71
2023/09/07 05:58:43;;;;;;;57.93;4.13;;;;;;;;;;4953679;28;20456;-70
2023/09/07 06:01:10;;;;;;;56.33;2.30;;;;;;;;;;4953681;28;20503;-71
2023/09/07 06:03:39;;;;;;;57.10;3.00;;;;;;;;;;4953880;28;20453;-70
2023/09/07 06:06:06;;;;;;;56.60;2.27;;;;;;;;;;4953735;28;20527;-70
2023/09/07 06:08:33;;;;;;;56.80;2.50;;;;;;;;;;4953508;28;20453;-70
2023/09/07 06:11:00;;;;;;;57.13;3.00;;;;;;;;;;4953498;28;20781;-70
2023/09/07 06:13:28;;;;;;;57.30;3.10;;;;;;;;;;4953637;28;20456;-70
2023/09/07 06:15:57;;;;;;;56.60;2.40;;;;;;;;;;4943078;28;20478;-70
2023/09/07 06:18:24;;;;;;;57.27;2.43;;;;;;;;;;4934424;29;20564;-71
2023/09/07 06:20:51;;;;;;;56.53;2.50;;;;;;;;;;4933996;29;20458;-71
2023/09/07 06:23:18;;;;;;;56.60;2.43;;;;;;;;;;4934436;29;20654;-71
2023/09/07 06:25:45;;;;;;;56.77;2.73;;;;;;;;;;4933789;29;20474;-70
2023/09/07 06:28:12;;;;;;;56.97;3.17;;;;;;;;;;4934299;29;20531;-71
2023/09/07 06:30:39;;;;;;;56.67;2.67;;;;;;;;;;4934237;29;20572;-71
2023/09/07 06:33:08;;;;;;;56.60;2.27;;;;;;;;;;4934035;29;20457;-71
2023/09/07 06:35:35;;;;;;;56.80;2.57;;;;;;;;;;4933648;29;20462;-71
2023/09/07 06:38:02;;;;;;;56.57;2.60;;;;;;;;;;4952773;29;20463;-70
2023/09/07 06:40:29;;;;;;;56.80;2.87;;;;;;;;;;4953237;28;20877;-71
2023/09/07 06:42:57;;;;;;;56.50;2.30;;;;;;;;;;4950019;28;20504;-71
2023/09/07 06:45:24;;;;;;;56.73;2.30;;;;;;;;;;4937810;29;20505;-71
2023/09/07 06:47:52;;;;;;;57.40;2.80;;;;;;;;;;4941511;29;20454;-71
2023/09/07 06:50:21;;;;;;;57.20;2.70;;;;;;;;;;4934145;29;20449;-70
2023/09/07 06:52:48;;;;;;;56.57;2.70;;;;;;;;;;4944799;28;20551;-71
2023/09/07 06:55:15;;;;;;;56.57;2.40;;;;;;;;;;4939703;28;20541;-71
2023/09/07 06:57:42;;;;;;;57.20;3.03;;;;;;;;;;4933417;29;20533;-71
2023/09/07 07:00:10;;;;;;;56.80;2.80;;;;;;;;;;4939761;29;20453;-71
2023/09/07 07:02:37;;;;;;;57.57;3.20;;;;;;;;;;4952759;28;20611;-70
2023/09/07 07:05:04;;;;;;;56.80;2.80;;;;;;;;;;4952207;28;20961;-71
2023/09/07 07:07:33;;;;;;;57.37;3.27;;;;;;;;;;4952498;28;20971;-71
2023/09/07 07:10:00;;;;;;;59.67;4.80;;;;;;;;;;4952840;28;20453;-71
2023/09/07 07:12:27;;;;;;;58.27;3.17;;;;;;;;;;4952610;28;20450;-71
2023/09/07 07:14:55;;;;;;;56.27;2.30;;;;;;;;;;4952503;28;20463;-71
2023/09/07 07:17:22;;;;;;;57.10;2.87;;;;;;;;;;4952381;28;20504;-71
2023/09/07 07:19:49;;;;;;;56.93;2.83;;;;;;;;;;4952398;28;20781;-71
2023/09/07 07:22:16;;;;;;;56.70;2.80;;;;;;;;;;4952969;28;20548;-71
2023/09/07 07:24:45;;;;;;;57.20;3.20;;;;;;;;;;4952804;28;20543;-70
2023/09/07 07:27:12;;;;;;;57.10;2.90;;;;;;;;;;4952618;28;20479;-71
2023/09/07 07:29:39;;;;;;;56.77;2.63;;;;;;;;;;4952670;28;20453;-71
2023/09/07 07:32:06;;;;;;;57.27;2.50;;;;;;;;;;4952729;28;20452;-70
2023/09/07 07:34:33;;;;;;;56.90;2.90;;;;;;;;;;4952541;28;20455;-70
2023/09/07 07:37:01;;;;;;;56.40;2.50;;;;;;;;;;4952414;28;20814;-72
2023/09/07 07:39:28;;;;;;;57.03;3.30;;;;;;;;;;4952762;28;20464;-71
2023/09/07 07:41:56;;;;;;;56.80;2.60;;;;;;;;;;4952518;28;20853;-71
2023/09/07 07:44:23;;;;;;;57.10;2.73;;;;;;;;;;4952624;28;20483;-72
2023/09/07 07:46:51;;;;;;;57.40;2.90;;;;;;;;;;4952113;28;20473;-72
2023/09/07 07:49:18;;;;;;;57.00;2.87;;;;;;;;;;4952991;28;20822;-71
2023/09/07 07:51:45;;;;;;;57.40;2.40;;;;;;;;;;4953263;28;20448;-72
2023/09/07 07:54:12;;;;;;;56.90;2.50;;;;;;;;;;4952543;28;20453;-72
2023/09/07 07:56:40;;;;;;;56.40;2.40;;;;;;;;;;4952063;28;20572;-72
2023/09/07 07:59:08;;;;;;;58.87;3.33;;;;;;;;;;4954539;28;20548;-72
2023/09/07 08:01:36;;;;;;;57.57;2.83;;;;;;;;;;4955540;28;20488;-72
2023/09/07 08:04:03;;;;;;;57.23;3.03;;;;;;;;;;4955817;28;20484;-72
2023/09/07 08:06:30;;;;;;;56.57;2.67;;;;;;;;;;4955588;28;20684;-73
2023/09/07 08:08:57;;;;;;;56.33;2.40;;;;;;;;;;4955486;28;20456;-72
2023/09/07 08:11:26;;;;;;;56.53;2.47;;;;;;;;;;4955556;28;20459;-72
2023/09/07 08:13:53;;;;;;;57.97;3.90;;;;;;;;;;4955239;28;20453;-73
2023/09/07 08:16:21;;;;;;;57.47;3.10;;;;;;;;;;4955047;28;20479;-72
2023/09/07 08:18:49;;;;;;;56.90;2.40;;;;;;;;;;4955523;28;20449;-71
2023/09/07 08:21:16;;;;;;;57.10;2.80;;;;;;;;;;4955369;28;20459;-72
2023/09/07 08:23:43;;;;;;;57.10;2.60;;;;;;;;;;4955554;28;20453;-71
2023/09/07 08:26:10;;;;;;;56.80;2.73;;;;;;;;;;4955029;28;20469;-70
2023/09/07 08:28:37;;;;;;;56.50;2.30;;;;;;;;;;4955235;28;20963;-71
2023/09/07 08:31:04;;;;;;;57.03;2.93;;;;;;;;;;4955277;28;20488;-72
2023/09/07 08:33:39;;;;;;;56.30;2.10;;;;;;;;;;4955451;28;20441;-72
2023/09/07 08:36:08;;;;;;;57.10;2.87;;;;;;;;;;4946886;28;20523;-72
2023/09/07 08:38:35;;;;;;;57.40;2.20;;;;;;;;;;4955074;28;20477;-71
2023/09/07 08:41:05;;;;;;;57.70;2.80;;;;;;;;;;4954938;28;20555;-73
2023/09/07 08:43:34;;;;;;;56.40;2.40;;;;;;;;;;4958419;28;20484;-72
2023/09/07 08:46:06;;;;;;;57.37;3.33;;;;;;;;;;4955336;28;20476;-72
2023/09/07 08:48:35;;;;;;;56.73;2.50;;;;;;;;;;4951057;29;20453;-72
2023/09/07 08:51:03;;;;;;;56.50;2.20;;;;;;;;;;4948885;28;20454;-72
2023/09/07 08:53:31;;;;;;;56.80;2.40;;;;;;;;;;4945069;28;20457;-72
2023/09/07 08:55:59;;;;;;;57.33;3.00;;;;;;;;;;4952511;29;20568;-72
2023/09/07 08:58:26;;;;;;;56.70;2.80;;;;;;;;;;4953295;29;20481;-72
2023/09/07 09:00:54;;;;;;;56.77;2.67;;;;;;;;;;4953907;29;20484;-72
2023/09/07 09:03:22;;;;;;;57.27;2.80;;;;;;;;;;4953940;29;20510;-71
2023/09/07 09:05:51;;;;;;;56.90;3.23;;;;;;;;;;4953115;29;20542;-70
2023/09/07 09:08:20;;;;;;;56.63;2.13;;;;;;;;;;4954132;29;20560;-70
2023/09/07 09:10:47;;;;;;;57.40;2.67;;;;;;;;;;4957097;28;20453;-70
2023/09/07 09:13:14;;;;;;;57.10;2.83;;;;;;;;;;4954001;29;20510;-70
2023/09/07 09:15:41;;;;;;;56.17;2.00;;;;;;;;;;4953794;29;20537;-72
2023/09/07 09:18:12;;;;;;;55.97;2.20;;;;;;;;;;4972518;29;20472;-70
2023/09/07 09:20:40;;;;;;;57.30;2.70;;;;;;;;;;4972422;28;20500;-72
2023/09/07 09:23:08;;;;;;;58.90;3.47;;;;;;;;;;4973223;28;20496;-72
2023/09/07 09:25:36;;;;;;;56.97;2.80;;;;;;;;;;4964492;28;20471;-73
2023/09/07 09:28:03;;;;;;;57.47;3.03;;;;;;;;;;4955856;28;20479;-73
2023/09/07 09:30:30;;;;;;;57.07;2.70;;;;;;;;;;4955707;28;20480;-71
2023/09/07 09:32:58;;;;;;;57.90;2.70;;;;;;;;;;4956590;28;20996;-73
2023/09/07 09:35:25;;;;;;;56.43;2.40;;;;;;;;;;4966586;28;20517;-73
2023/09/07 09:37:52;;;;;;;58.50;2.97;;;;;;;;;;4955112;28;20445;-72
2023/09/07 09:40:21;;;;;;;57.10;2.73;;;;;;;;;;4955136;28;20846;-73
2023/09/07 09:42:48;;;;;;;57.00;2.50;;;;;;;;;;4954440;28;20479;-70
2023/09/07 09:45:16;;;;;;;56.77;2.57;;;;;;;;;;4954267;28;20463;-73
2023/09/07 09:47:43;;;;;;;56.60;2.10;;;;;;;;;;4953985;28;20475;-73
2023/09/07 09:50:12;;;;;;;57.00;2.60;;;;;;;;;;4954111;28;20457;-73
2023/09/07 09:52:40;;;;;;;58.40;3.63;;;;;;;;;;4954376;28;20448;-73
2023/09/07 09:55:07;;;;;;;56.70;2.50;;;;;;;;;;4954080;28;20459;-73
2023/09/07 09:57:37;;;;;;;56.30;2.73;;;;;;;;;;4954396;28;20479;-69
2023/09/07 10:00:19;;;;;;;57.10;2.60;;;;;;;;;;4954109;28;20453;-74
2023/09/07 10:02:47;;;;;;;56.17;2.03;;;;;;;;;;4954871;28;20524;-73
2023/09/07 10:05:15;;;;;;;56.60;2.57;;;;;;;;;;4955070;28;20453;-72
2023/09/07 10:07:43;;;;;;;57.57;3.00;;;;;;;;;;4958192;28;20546;-74
2023/09/07 10:10:11;;;;;;;56.60;2.33;;;;;;;;;;4961530;28;20459;-74
2023/09/07 10:12:43;;;;;;;56.00;2.00;;;;;;;;;;4957467;28;20457;-71
2023/09/07 10:15:21;;;;;;;56.27;2.40;;;;;;;;;;4958043;28;20536;-73
2023/09/07 10:17:50;;;;;;;56.13;2.30;;;;;;;;;;4960120;28;20952;-73
2023/09/07 10:20:17;;;;;;;56.60;2.40;;;;;;;;;;4960302;28;20479;-72
2023/09/07 10:22:45;;;;;;;55.70;2.00;;;;;;;;;;4960083;28;20484;-73
2023/09/07 10:25:21;;;;;;;55.53;2.20;;;;;;;;;;4960198;28;20957;-72
2023/09/07 10:27:50;;;;;;;55.50;1.97;;;;;;;;;;4959779;28;20456;-73
2023/09/07 10:30:19;;;;;;;55.57;2.07;;;;;;;;;;4959195;28;20457;-73
2023/09/07 10:32:46;;;;;;;55.70;1.90;;;;;;;;;;4953677;28;20452;-72
2023/09/07 10:35:14;;;;;;;56.10;2.60;;;;;;;;;;4952858;28;20444;-73
2023/09/07 10:37:42;;;;;;;55.17;2.07;;;;;;;;;;4952632;28;20464;-71
2023/09/07 10:40:11;;;;;;;55.47;2.63;;;;;;;;;;4953239;28;20476;-72
2023/09/07 10:42:39;;;;;;;55.27;1.93;;;;;;;;;;4952237;28;20476;-72
2023/09/07 10:45:12;;;;;;;55.10;2.13;;;;;;;;;;4944764;28;20872;-73
2023/09/07 10:47:43;;;;;;;55.30;2.13;;;;;;;;;;4944521;28;20496;-73
2023/09/07 10:50:12;;;;;;;55.17;2.50;;;;;;;;;;4942395;28;20449;-73
2023/09/07 10:52:40;;;;;;;54.90;1.90;;;;;;;;;;4933465;29;20889;-73
2023/09/07 10:55:08;;;;;;;55.40;2.23;;;;;;;;;;4933467;29;20464;-73
2023/09/07 10:57:42;;;;;;;55.07;2.30;;;;;;;;;;4933915;29;20473;-74
2023/09/07 11:00:12;;;;;;;56.37;2.83;;;;;;;;;;4941522;29;20457;-74
2023/09/07 11:02:39;;;;;;;55.00;2.10;;;;;;;;;;4933522;29;20520;-73
2023/09/07 11:05:06;;;;;;;55.07;2.03;;;;;;;;;;4951225;29;20453;-70
2023/09/07 11:07:34;;;;;;;55.17;2.00;;;;;;;;;;4952445;28;20464;-73
2023/09/07 11:10:04;;;;;;;55.20;2.57;;;;;;;;;;4952766;28;20845;-73
2023/09/07 11:12:31;;;;;;;55.40;2.13;;;;;;;;;;4947318;28;21059;-72
2023/09/07 11:14:58;;;;;;;55.40;2.30;;;;;;;;;;4933174;29;20809;-71
2023/09/07 11:17:28;;;;;;;55.60;2.20;;;;;;;;;;4932935;29;20474;-73
2023/09/07 11:19:56;;;;;;;55.57;2.43;;;;;;;;;;4933557;29;20834;-73
2023/09/07 11:22:23;;;;;;;55.10;2.00;;;;;;;;;;4933538;29;20457;-72
2023/09/07 11:24:50;;;;;;;54.87;2.07;;;;;;;;;;4933386;29;20449;-73
2023/09/07 11:27:18;;;;;;;54.97;2.20;;;;;;;;;;4952215;29;20465;-72
2023/09/07 11:29:52;;;;;;;55.00;2.00;;;;;;;;;;4952536;28;20449;-73
2023/09/07 11:32:21;;;;;;;54.60;1.90;;;;;;;;;;4953465;28;20451;-73
2023/09/07 11:34:50;;;;;;;54.90;2.27;;;;;;;;;;4956104;28;20524;-72
2023/09/07 11:37:17;;;;;;;55.97;2.30;;;;;;;;;;4954955;28;20884;-73
2023/09/07 11:39:45;;;;;;;55.47;2.20;;;;;;;;;;4955934;28;20471;-72
2023/09/07 11:42:12;;;;;;;55.10;2.47;;;;;;;;;;4955859;28;20464;-72
2023/09/07 11:44:39;;;;;;;55.40;2.67;;;;;;;;;;4956406;28;20449;-72
2023/09/07 11:47:06;;;;;;;55.00;2.80;;;;;;;;;;4955654;28;20483;-73
2023/09/07 11:49:33;;;;;;;54.83;2.10;;;;;;;;;;4955923;28;20547;-72
2023/09/07 11:52:02;;;;;;;55.30;2.80;;;;;;;;;;4955564;28;20456;-72
2023/09/07 11:54:29;;;;;;;54.37;2.00;;;;;;;;;;4955166;28;20523;-71
2023/09/07 11:56:56;;;;;;;55.07;2.30;;;;;;;;;;4955167;28;20468;-71
2023/09/07 11:59:23;;;;;;;54.43;2.10;;;;;;;;;;4955867;28;20456;-72
2023/09/07 12:01:50;;;;;;;54.87;2.60;;;;;;;;;;4955436;28;20463;-71
2023/09/07 12:04:18;;;;;;;54.60;2.40;;;;;;;;;;4955666;28;20445;-70
2023/09/07 12:06:45;;;;;;;54.40;2.00;;;;;;;;;;4955837;28;20476;-72
2023/09/07 12:09:14;;;;;;;54.47;1.90;;;;;;;;;;4955700;28;20459;-72
2023/09/07 12:11:43;;;;;;;54.50;2.17;;;;;;;;;;4955307;28;20463;-71
2023/09/07 12:14:10;;;;;;;54.73;2.33;;;;;;;;;;4955395;28;20488;-72
2023/09/07 12:16:37;;;;;;;56.30;2.60;;;;;;;;;;4955102;28;20480;-71
2023/09/07 12:19:04;;;;;;;55.70;2.57;;;;;;;;;;4955398;28;20449;-72
2023/09/07 12:21:31;;;;;;;54.60;2.20;;;;;;;;;;4955392;28;20909;-70
2023/09/07 12:23:58;;;;;;;54.87;1.93;;;;;;;;;;4955117;28;20479;-72
2023/09/07 12:26:27;;;;;;;54.67;2.10;;;;;;;;;;4955077;28;20472;-72
2023/09/07 12:28:54;;;;;;;54.70;2.13;;;;;;;;;;4955257;28;20487;-72
2023/09/07 12:31:21;;;;;;;54.90;2.20;;;;;;;;;;4955019;28;20637;-72
2023/09/07 12:33:48;;;;;;;54.60;2.40;;;;;;;;;;4955105;28;20485;-72
2023/09/07 12:36:15;;;;;;;55.17;2.30;;;;;;;;;;4954601;28;20476;-72
2023/09/07 12:38:43;;;;;;;54.80;2.13;;;;;;;;;;4955190;28;20461;-72
2023/09/07 12:41:10;;;;;;;54.97;1.97;;;;;;;;;;4955146;28;20508;-71
2023/09/07 12:43:38;;;;;;;54.60;2.10;;;;;;;;;;4953554;28;20819;-71
2023/09/07 12:46:06;;;;;;;54.60;2.37;;;;;;;;;;4945502;28;20473;-71
2023/09/07 12:48:33;;;;;;;54.70;2.60;;;;;;;;;;4935805;29;20464;-72
2023/09/07 12:51:00;;;;;;;54.77;2.30;;;;;;;;;;4935595;29;20465;-72
2023/09/07 12:53:27;;;;;;;54.47;2.00;;;;;;;;;;4935545;29;20498;-71
2023/09/07 12:55:54;;;;;;;54.40;1.90;;;;;;;;;;4945429;29;20527;-71
2023/09/07 12:58:21;;;;;;;55.03;2.30;;;;;;;;;;4950904;28;20457;-72
2023/09/07 13:00:51;;;;;;;54.40;2.00;;;;;;;;;;4943275;29;20938;-72
2023/09/07 13:03:18;;;;;;;54.33;2.00;;;;;;;;;;4951107;29;21011;-73
2023/09/07 13:05:45;;;;;;;54.50;2.30;;;;;;;;;;4944933;29;20487;-72
2023/09/07 13:08:12;;;;;;;54.60;2.20;;;;;;;;;;4938715;28;20450;-72
2023/09/07 13:10:39;;;;;;;55.30;2.57;;;;;;;;;;4949106;28;20464;-73
2023/09/07 13:13:07;;;;;;;54.47;2.27;;;;;;;;;;4935139;29;20499;-73
2023/09/07 13:15:34;;;;;;;54.67;2.30;;;;;;;;;;4934981;29;20454;-74
2023/09/07 13:18:02;;;;;;;54.40;2.10;;;;;;;;;;4935056;29;20450;-73
2023/09/07 13:20:29;;;;;;;53.97;1.83;;;;;;;;;;4935374;29;20837;-72
2023/09/07 13:22:56;;;;;;;54.20;2.20;;;;;;;;;;4935442;29;20453;-71
2023/09/07 13:25:24;;;;;;;54.33;2.23;;;;;;;;;;4934968;29;20824;-72
2023/09/07 13:27:51;;;;;;;54.40;2.27;;;;;;;;;;4935121;29;20454;-73
2023/09/07 13:30:18;;;;;;;54.90;2.70;;;;;;;;;;4934784;29;20825;-73
2023/09/07 13:32:46;;;;;;;54.40;1.97;;;;;;;;;;4934667;29;20460;-72
2023/09/07 13:35:15;;;;;;;54.13;2.03;;;;;;;;;;4934825;29;20489;-73
2023/09/07 13:37:42;;;;;;;54.40;1.73;;;;;;;;;;4934691;29;20564;-73
2023/09/07 13:40:10;;;;;;;54.70;2.40;;;;;;;;;;4934795;29;20541;-73
2023/09/07 13:42:38;;;;;;;55.30;3.07;;;;;;;;;;4934830;29;20465;-72
2023/09/07 13:45:06;;;;;;;54.87;2.40;;;;;;;;;;4934426;29;20966;-72
2023/09/07 13:47:33;;;;;;;54.87;2.30;;;;;;;;;;4934499;29;20495;-72
2023/09/07 13:50:00;;;;;;;55.47;2.37;;;;;;;;;;4934816;29;20449;-71
2023/09/07 13:52:28;;;;;;;55.20;2.53;;;;;;;;;;4934515;29;20474;-71
2023/09/07 13:54:55;;;;;;;55.00;2.30;;;;;;;;;;4934199;29;20490;-72
2023/09/07 13:57:23;;;;;;;54.43;2.13;;;;;;;;;;4952404;29;20839;-73
2023/09/07 13:59:50;;;;;;;55.00;2.10;;;;;;;;;;4953474;28;20813;-73
2023/09/07 14:02:17;;;;;;;54.90;2.00;;;;;;;;;;4953637;28;20449;-73
2023/09/07 14:04:44;;;;;;;54.90;2.00;;;;;;;;;;4953660;28;20451;-73
2023/09/07 14:07:12;;;;;;;55.47;2.30;;;;;;;;;;4953151;28;21153;-72
2023/09/07 14:09:41;;;;;;;54.47;2.20;;;;;;;;;;4953468;28;20457;-72
2023/09/07 14:12:08;;;;;;;55.17;2.37;;;;;;;;;;4953284;28;20453;-71
2023/09/07 14:14:35;;;;;;;54.87;2.30;;;;;;;;;;4953122;28;20511;-72
2023/09/07 14:17:03;;;;;;;54.47;1.87;;;;;;;;;;4953079;28;20468;-72
2023/09/07 14:19:31;;;;;;;54.67;2.10;;;;;;;;;;4953363;28;20535;-72
2023/09/07 14:21:58;;;;;;;54.40;2.40;;;;;;;;;;4953266;28;20484;-72
2023/09/07 14:24:25;;;;;;;54.80;2.23;;;;;;;;;;4953434;28;20441;-73
2023/09/07 14:26:54;;;;;;;54.93;2.67;;;;;;;;;;4952701;28;20572;-72
2023/09/07 14:29:21;;;;;;;56.20;2.00;;;;;;;;;;4953097;28;20482;-72
2023/09/07 14:31:48;;;;;;;54.87;2.33;;;;;;;;;;4953150;28;20937;-71
2023/09/07 14:34:15;;;;;;;54.57;2.00;;;;;;;;;;4953139;28;20492;-72